Time;durP1;ratioP1;P1;durP2;ratioP2;P2;SDS_P1;SDS_P2;PMS_P1;PMS_P2;Temp;Humidity;BMP_temperature;BMP_pressure;BME280_temperature;BME280_humidity;BME280_pressure;Samples;Min_cycle;Max_cycle;Signal;HPM_P1;HPM_P2
2022/04/16 00:00:27;;;;;;;25.43;18.20;;;8.50;99.90;;;;;;5044259;28;20287;-66
2022/04/16 00:02:56;;;;;;;26.17;18.70;;;8.40;99.90;;;;;;5043731;28;20291;-66
2022/04/16 00:05:25;;;;;;;28.87;18.30;;;8.40;99.90;;;;;;5040283;28;20328;-66
2022/04/16 00:08:07;;;;;;;28.47;18.37;;;8.40;99.90;;;;;;5045651;28;20197;-65
2022/04/16 00:10:37;;;;;;;27.97;18.90;;;8.40;99.90;;;;;;5040852;28;20193;-66
2022/04/16 00:13:05;;;;;;;27.27;18.97;;;8.30;99.90;;;;;;5042275;28;20188;-66
2022/04/16 00:15:36;;;;;;;28.03;18.90;;;8.30;99.90;;;;;;5045488;28;20204;-66
2022/04/16 00:18:05;;;;;;;29.00;19.27;;;8.30;99.90;;;;;;5041396;28;20658;-66
2022/04/16 00:20:35;;;;;;;26.70;18.53;;;8.20;99.90;;;;;;5040537;28;20468;-66
2022/04/16 00:23:03;;;;;;;28.97;19.67;;;8.20;99.90;;;;;;5044617;28;20299;-66
2022/04/16 00:25:34;;;;;;;28.23;18.80;;;8.20;99.90;;;;;;5043271;28;20188;-66
2022/04/16 00:28:03;;;;;;;27.73;19.03;;;8.20;99.90;;;;;;5042471;28;20299;-66
2022/04/16 00:30:37;;;;;;;31.93;19.53;;;8.10;99.90;;;;;;5040080;28;20200;-66
2022/04/16 00:33:07;;;;;;;30.87;18.87;;;8.10;99.90;;;;;;5043727;28;20439;-66
2022/04/16 00:35:37;;;;;;;30.00;19.10;;;8.10;99.90;;;;;;5048777;28;20288;-66
2022/04/16 00:38:05;;;;;;;31.93;19.97;;;8.00;99.90;;;;;;5044092;28;20185;-66
2022/04/16 00:40:34;;;;;;;29.43;19.17;;;8.00;99.90;;;;;;5045756;28;20220;-66
2022/04/16 00:43:05;;;;;;;29.97;20.20;;;7.90;99.90;;;;;;5047542;28;20213;-66
2022/04/16 00:45:33;;;;;;;31.53;20.30;;;7.90;99.90;;;;;;5045818;28;20189;-66
2022/04/16 00:48:01;;;;;;;29.00;19.70;;;7.90;99.90;;;;;;5049074;28;20280;-66
2022/04/16 00:50:32;;;;;;;29.47;19.37;;;7.80;99.90;;;;;;5046351;28;20211;-66
2022/04/16 00:53:01;;;;;;;32.47;20.30;;;7.80;99.90;;;;;;5048789;28;20197;-66
2022/04/16 00:55:31;;;;;;;29.27;19.73;;;7.80;99.90;;;;;;5047866;28;20212;-66
2022/04/16 00:57:59;;;;;;;33.70;20.47;;;7.70;99.90;;;;;;5046709;28;20205;-66
2022/04/16 01:00:27;;;;;;;34.67;21.37;;;7.70;99.90;;;;;;5047612;28;20201;-66
2022/04/16 01:02:57;;;;;;;37.23;21.47;;;7.70;99.90;;;;;;5045590;28;20728;-65
2022/04/16 01:05:25;;;;;;;31.03;20.27;;;7.70;99.90;;;;;;5046025;28;20236;-66
2022/04/16 01:07:57;;;;;;;34.27;21.13;;;7.70;99.90;;;;;;5048543;28;20193;-65
2022/04/16 01:10:27;;;;;;;39.30;21.83;;;7.70;99.90;;;;;;5046949;28;20195;-66
2022/04/16 01:12:55;;;;;;;34.23;21.73;;;7.60;99.90;;;;;;5045832;28;20215;-66
2022/04/16 01:15:25;;;;;;;38.63;21.07;;;7.60;99.90;;;;;;5044053;28;20544;-66
2022/04/16 01:17:54;;;;;;;34.07;20.67;;;7.60;99.90;;;;;;5047453;28;20243;-66
2022/04/16 01:20:23;;;;;;;37.27;21.93;;;7.60;99.90;;;;;;5045200;28;20197;-66
2022/04/16 01:22:56;;;;;;;33.90;22.30;;;7.60;99.90;;;;;;5046027;28;20219;-66
2022/04/16 01:25:27;;;;;;;36.33;22.60;;;7.60;99.90;;;;;;5046644;28;20197;-66
2022/04/16 01:27:55;;;;;;;36.40;21.70;;;7.60;99.90;;;;;;5041181;28;20611;-66
2022/04/16 01:30:24;;;;;;;35.47;22.00;;;7.50;99.90;;;;;;5041967;28;20193;-66
2022/04/16 01:32:53;;;;;;;34.03;21.67;;;7.50;99.90;;;;;;5047995;28;20231;-66
2022/04/16 01:35:21;;;;;;;38.73;22.80;;;7.50;99.90;;;;;;5043965;28;20201;-66
2022/04/16 01:37:49;;;;;;;36.97;22.70;;;7.50;99.90;;;;;;5046329;28;20231;-66
2022/04/16 01:40:20;;;;;;;35.70;22.43;;;7.50;99.90;;;;;;5044071;28;20212;-65
2022/04/16 01:42:48;;;;;;;36.80;22.90;;;7.50;99.90;;;;;;5045971;28;20587;-66
2022/04/16 01:45:18;;;;;;;34.83;21.87;;;7.40;99.90;;;;;;5044676;28;20670;-66
2022/04/16 01:47:47;;;;;;;37.30;23.30;;;7.40;99.90;;;;;;5047796;28;20212;-66
2022/04/16 01:50:15;;;;;;;36.80;22.73;;;7.40;99.90;;;;;;5046437;28;20335;-66
2022/04/16 01:52:44;;;;;;;38.30;22.77;;;7.40;99.90;;;;;;5048777;28;20200;-66
2022/04/16 01:55:13;;;;;;;35.60;22.63;;;7.40;99.90;;;;;;5045719;28;20230;-66
2022/04/16 01:57:43;;;;;;;36.43;22.67;;;7.40;99.90;;;;;;5045322;28;20193;-66
2022/04/16 02:00:14;;;;;;;33.80;21.47;;;7.40;99.90;;;;;;5045127;28;20200;-66
2022/04/16 02:02:43;;;;;;;38.10;22.87;;;7.40;99.90;;;;;;5045145;28;20208;-66
2022/04/16 02:05:11;;;;;;;33.70;22.20;;;7.40;99.90;;;;;;5046381;28;20199;-66
2022/04/16 02:07:42;;;;;;;40.43;23.40;;;7.40;99.90;;;;;;5048416;28;20235;-66
2022/04/16 02:10:12;;;;;;;40.00;24.20;;;7.40;99.90;;;;;;5042367;28;20201;-66
2022/04/16 02:12:42;;;;;;;35.67;22.27;;;7.40;99.90;;;;;;5046843;28;20292;-66
2022/04/16 02:15:11;;;;;;;36.57;22.53;;;7.40;99.90;;;;;;5043388;28;20197;-66
2022/04/16 02:17:40;;;;;;;37.07;22.93;;;7.40;99.90;;;;;;5044621;28;20199;-66
2022/04/16 02:20:10;;;;;;;40.27;22.80;;;7.40;99.90;;;;;;5045785;28;20209;-66
2022/04/16 02:22:40;;;;;;;37.33;22.23;;;7.40;99.90;;;;;;5044644;28;20219;-66
2022/04/16 02:25:09;;;;;;;40.03;22.63;;;7.40;99.90;;;;;;5039367;28;20207;-66
2022/04/16 02:27:37;;;;;;;34.97;21.93;;;7.40;99.90;;;;;;5045243;28;20180;-66
2022/04/16 02:30:09;;;;;;;38.77;23.13;;;7.40;99.90;;;;;;5042384;28;20397;-66
2022/04/16 02:32:38;;;;;;;36.23;22.07;;;7.40;99.90;;;;;;5038018;28;20239;-66
2022/04/16 02:35:07;;;;;;;35.60;22.50;;;7.40;99.90;;;;;;5046904;28;20279;-65
2022/04/16 02:37:36;;;;;;;37.00;22.33;;;7.40;99.90;;;;;;5045548;28;20201;-66
2022/04/16 02:40:06;;;;;;;37.50;23.37;;;7.40;99.90;;;;;;5045852;28;20488;-66
2022/04/16 02:42:35;;;;;;;32.70;21.70;;;7.40;99.90;;;;;;5046402;28;20710;-66
2022/04/16 02:47:52;;;;;;;32.50;21.27;;;7.30;99.90;;;;;;5044092;28;20566;-66
2022/04/16 02:50:24;;;;;;;33.87;22.07;;;7.30;99.90;;;;;;5046717;28;20209;-66
2022/04/16 02:52:54;;;;;;;33.07;21.70;;;7.30;99.90;;;;;;5045031;28;20246;-66
2022/04/16 02:55:23;;;;;;;36.47;22.63;;;7.30;99.90;;;;;;5044132;28;20196;-66
2022/04/16 02:57:51;;;;;;;41.57;22.80;;;7.30;99.90;;;;;;5044801;28;20631;-66
2022/04/16 03:00:21;;;;;;;33.57;22.37;;;7.30;99.90;;;;;;5042245;28;20291;-66
2022/04/16 03:02:51;;;;;;;36.37;22.20;;;7.30;99.90;;;;;;5047123;28;20655;-66
2022/04/16 03:05:19;;;;;;;38.67;23.17;;;7.20;99.90;;;;;;5043174;28;20204;-66
2022/04/16 03:07:48;;;;;;;38.50;22.67;;;7.20;99.90;;;;;;5044364;28;20201;-66
2022/04/16 03:10:16;;;;;;;34.77;21.33;;;7.20;99.90;;;;;;5043224;28;20201;-66
2022/04/16 03:12:46;;;;;;;37.10;22.23;;;7.30;99.90;;;;;;5045253;28;20890;-66
2022/04/16 03:18:03;;;;;;;37.00;22.47;;;7.20;99.90;;;;;;5035768;28;20288;-66
2022/04/16 03:20:32;;;;;;;40.00;22.77;;;7.20;99.90;;;;;;5042631;28;20197;-66
2022/04/16 03:23:02;;;;;;;31.73;21.63;;;7.20;99.90;;;;;;5041645;28;20435;-65
2022/04/16 03:25:30;;;;;;;39.73;22.77;;;7.20;99.90;;;;;;5043648;28;20200;-66
2022/04/16 03:27:59;;;;;;;35.83;23.13;;;7.10;99.90;;;;;;5044189;28;20476;-66
2022/04/16 03:30:27;;;;;;;39.27;23.70;;;7.10;99.90;;;;;;5043592;28;20192;-66
2022/04/16 03:32:56;;;;;;;37.37;23.67;;;7.10;99.90;;;;;;5043265;28;20354;-66
2022/04/16 03:35:25;;;;;;;35.70;22.33;;;7.00;99.90;;;;;;5046097;28;20514;-66
2022/04/16 03:37:56;;;;;;;35.73;23.27;;;7.00;99.90;;;;;;5041033;28;20578;-66
2022/04/16 03:40:26;;;;;;;38.40;23.27;;;7.00;99.90;;;;;;5045503;28;20271;-66
2022/04/16 03:42:58;;;;;;;37.97;22.90;;;7.00;99.90;;;;;;5044109;28;20197;-66
2022/04/16 03:45:29;;;;;;;35.20;22.43;;;6.90;99.90;;;;;;5040955;28;20204;-66
2022/04/16 03:47:58;;;;;;;36.93;23.13;;;6.90;99.90;;;;;;5045634;28;20608;-65
2022/04/16 03:50:30;;;;;;;36.03;22.53;;;6.90;99.90;;;;;;5045022;28;20192;-66
2022/04/16 03:52:59;;;;;;;40.23;23.63;;;6.90;99.90;;;;;;5046548;28;20307;-66
2022/04/16 04:01:03;;;;;;;38.87;22.83;;;6.80;99.90;;;;;;5041150;28;20223;-66
2022/04/16 04:03:31;;;;;;;37.97;23.60;;;6.80;99.90;;;;;;5046149;28;20197;-66
2022/04/16 04:06:01;;;;;;;40.10;23.90;;;6.80;99.90;;;;;;5044649;28;20239;-65
2022/04/16 04:08:31;;;;;;;40.17;23.67;;;6.80;99.90;;;;;;5044076;28;20234;-66
2022/04/16 04:10:59;;;;;;;41.13;23.10;;;6.70;99.90;;;;;;5047220;28;20196;-66
2022/04/16 04:13:28;;;;;;;45.00;24.93;;;6.70;99.90;;;;;;5044458;28;20197;-66
2022/04/16 04:15:56;;;;;;;40.73;23.07;;;6.70;99.90;;;;;;5046114;28;20291;-66
2022/04/16 04:18:26;;;;;;;39.70;23.53;;;6.70;99.90;;;;;;5048098;28;20197;-66
2022/04/16 04:20:56;;;;;;;38.93;23.70;;;6.70;99.90;;;;;;5049910;28;20289;-66
2022/04/16 04:23:26;;;;;;;41.80;24.17;;;6.70;99.90;;;;;;5047418;28;20201;-66
2022/04/16 04:25:56;;;;;;;47.37;25.80;;;6.60;99.90;;;;;;5047477;28;20201;-66
2022/04/16 04:28:24;;;;;;;45.87;25.87;;;6.60;99.90;;;;;;5044639;28;20197;-66
2022/04/16 04:30:53;;;;;;;43.77;24.77;;;6.60;99.90;;;;;;5045659;28;20197;-66
2022/04/16 04:33:21;;;;;;;37.20;22.97;;;6.60;99.90;;;;;;5048356;28;20224;-66
2022/04/16 04:35:51;;;;;;;39.43;23.43;;;6.50;99.90;;;;;;5047198;28;20196;-66
2022/04/16 04:38:19;;;;;;;40.07;22.63;;;6.50;99.90;;;;;;5045568;28;20201;-66
2022/04/16 04:40:49;;;;;;;41.27;24.17;;;6.50;99.90;;;;;;5047230;28;20290;-66
2022/04/16 04:43:17;;;;;;;43.73;25.27;;;6.50;99.90;;;;;;5048513;28;20193;-66
2022/04/16 04:45:48;;;;;;;43.60;25.30;;;6.50;99.90;;;;;;5047604;28;20673;-66
2022/04/16 04:48:17;;;;;;;48.53;24.87;;;6.50;99.90;;;;;;5046121;28;20606;-66
2022/04/16 04:50:45;;;;;;;44.33;24.87;;;6.50;99.90;;;;;;5048616;28;20684;-66
2022/04/16 04:53:14;;;;;;;43.53;25.50;;;6.50;99.90;;;;;;5048175;28;20228;-66
2022/04/16 04:55:42;;;;;;;44.30;25.60;;;6.50;99.90;;;;;;5050250;28;20268;-66
2022/04/16 04:58:12;;;;;;;46.07;25.00;;;6.50;99.90;;;;;;5042473;28;20240;-66
2022/04/16 05:00:40;;;;;;;41.57;25.30;;;6.50;99.90;;;;;;5044687;28;20208;-66
2022/04/16 05:03:09;;;;;;;43.07;24.77;;;6.50;99.90;;;;;;5045573;28;20536;-66
2022/04/16 05:05:37;;;;;;;43.80;25.03;;;6.50;99.90;;;;;;5047069;28;20556;-66
2022/04/16 05:08:09;;;;;;;45.93;26.03;;;6.50;99.90;;;;;;5046350;28;20443;-66
2022/04/16 05:10:37;;;;;;;46.33;26.13;;;6.50;99.90;;;;;;5045889;28;20189;-66
2022/04/16 05:13:05;;;;;;;48.83;26.43;;;6.60;99.90;;;;;;5042475;28;20193;-66
2022/04/16 05:15:35;;;;;;;39.27;24.90;;;6.60;99.90;;;;;;5046085;28;20546;-65
2022/04/16 05:18:04;;;;;;;41.87;25.80;;;6.70;99.90;;;;;;5046661;28;20569;-66
2022/04/16 05:20:33;;;;;;;44.37;24.77;;;6.70;99.90;;;;;;5045239;28;20303;-65
2022/04/16 05:23:01;;;;;;;42.17;24.83;;;6.80;99.90;;;;;;5046788;28;20204;-65
2022/04/16 05:25:30;;;;;;;41.37;24.10;;;6.90;99.90;;;;;;5046972;28;20771;-65
2022/04/16 05:27:58;;;;;;;42.50;24.33;;;6.90;99.90;;;;;;5045544;28;20674;-65
2022/04/16 05:30:33;;;;;;;37.97;24.30;;;7.00;99.90;;;;;;5045787;28;20543;-65
2022/04/16 05:33:12;;;;;;;36.63;23.03;;;7.10;99.90;;;;;;5049782;28;20255;-65
2022/04/16 05:35:40;;;;;;;38.07;23.73;;;7.10;99.90;;;;;;5045845;28;20205;-65
2022/04/16 05:38:09;;;;;;;36.77;23.37;;;7.20;99.90;;;;;;5046954;28;20205;-65
2022/04/16 05:40:37;;;;;;;38.43;23.43;;;7.30;99.90;;;;;;5043866;28;20671;-65
2022/04/16 05:43:06;;;;;;;35.03;22.53;;;7.50;99.90;;;;;;5047932;28;20683;-65
2022/04/16 05:45:34;;;;;;;35.73;22.00;;;7.80;99.90;;;;;;5043372;28;20700;-66
2022/04/16 05:48:04;;;;;;;31.87;20.40;;;8.10;99.90;;;;;;5046400;28;20196;-66
2022/04/16 05:50:33;;;;;;;34.43;21.40;;;8.40;99.90;;;;;;5048451;28;20574;-66
2022/04/16 05:53:01;;;;;;;32.13;21.07;;;8.80;99.90;;;;;;5043088;28;20259;-66
2022/04/16 05:55:31;;;;;;;31.47;21.00;;;9.00;99.90;;;;;;5042150;28;20547;-66
2022/04/16 05:58:00;;;;;;;29.20;20.50;;;9.40;99.90;;;;;;5044368;28;20654;-66
2022/04/16 06:00:28;;;;;;;32.27;19.87;;;9.70;99.90;;;;;;5044492;28;20287;-66
2022/04/16 06:02:57;;;;;;;28.10;20.07;;;10.00;99.90;;;;;;5046512;28;20219;-67
2022/04/16 06:05:28;;;;;;;29.70;20.27;;;10.20;99.90;;;;;;5041877;28;20563;-66
2022/04/16 06:07:56;;;;;;;32.77;20.93;;;10.50;99.90;;;;;;5047244;28;20566;-66
2022/04/16 06:10:25;;;;;;;27.30;19.50;;;10.70;99.90;;;;;;5040548;28;20196;-67
2022/04/16 06:12:53;;;;;;;28.20;19.50;;;10.70;99.90;;;;;;5042396;28;20676;-67
2022/04/16 06:15:23;;;;;;;27.43;19.53;;;10.90;99.90;;;;;;5044223;28;20647;-67
2022/04/16 06:17:51;;;;;;;28.50;20.13;;;11.00;99.90;;;;;;5048914;28;20582;-66
2022/04/16 06:20:19;;;;;;;29.83;20.40;;;11.10;99.90;;;;;;5044526;28;20666;-66
2022/04/16 06:22:49;;;;;;;30.37;20.63;;;11.10;99.90;;;;;;5045099;28;20223;-66
2022/04/16 06:25:17;;;;;;;30.17;20.20;;;11.20;99.90;;;;;;5045377;28;20211;-66
2022/04/16 06:27:46;;;;;;;25.40;19.20;;;11.50;99.90;;;;;;5045847;28;20275;-66
2022/04/16 06:30:14;;;;;;;25.73;18.43;;;11.80;99.90;;;;;;5042696;28;20205;-64
2022/04/16 06:32:42;;;;;;;30.50;20.17;;;12.20;99.90;;;;;;5047940;28;20236;-64
2022/04/16 06:35:12;;;;;;;29.33;20.13;;;12.30;99.90;;;;;;5044383;28;20221;-67
2022/04/16 06:37:42;;;;;;;28.73;19.50;;;12.60;99.90;;;;;;5047495;28;20203;-64
2022/04/16 06:40:12;;;;;;;28.20;19.67;;;12.70;99.90;;;;;;5044884;28;20379;-65
2022/04/16 06:42:41;;;;;;;24.53;18.43;;;12.80;99.90;;;;;;5041640;28;20207;-64
2022/04/16 06:45:11;;;;;;;26.30;18.30;;;12.90;99.90;;;;;;5039197;28;20211;-64
2022/04/16 06:47:40;;;;;;;26.27;18.37;;;13.10;99.90;;;;;;5041489;28;20203;-64
2022/04/16 06:50:09;;;;;;;26.07;18.97;;;13.20;99.90;;;;;;5045489;28;20197;-64
2022/04/16 06:52:38;;;;;;;25.13;18.70;;;13.50;99.90;;;;;;5045561;28;20208;-64
2022/04/16 06:55:07;;;;;;;25.70;18.90;;;13.50;99.90;;;;;;5062272;28;20761;-64
2022/04/16 06:57:37;;;;;;;29.17;19.30;;;13.70;99.90;;;;;;5045455;28;20271;-65
2022/04/16 07:00:07;;;;;;;24.53;17.50;;;13.70;99.90;;;;;;5025914;28;20248;-64
2022/04/16 07:02:36;;;;;;;22.67;17.27;;;13.80;99.90;;;;;;5046268;28;20602;-64
2022/04/16 07:05:06;;;;;;;24.20;17.93;;;14.20;99.90;;;;;;5044748;28;20276;-64
2022/04/16 07:07:35;;;;;;;21.57;17.10;;;14.30;99.90;;;;;;5042986;28;20201;-65
2022/04/16 07:10:04;;;;;;;23.20;17.63;;;14.50;99.90;;;;;;5042767;28;20215;-64
2022/04/16 07:12:32;;;;;;;25.53;17.93;;;14.70;99.90;;;;;;5044585;28;20291;-64
2022/04/16 07:15:02;;;;;;;22.80;18.47;;;14.80;99.90;;;;;;5041520;28;20638;-65
2022/04/16 07:17:31;;;;;;;23.70;17.33;;;15.10;99.90;;;;;;5044043;28;20212;-64
2022/04/16 07:19:59;;;;;;;20.77;17.07;;;15.40;99.90;;;;;;5046191;28;20549;-64
2022/04/16 07:22:28;;;;;;;22.43;16.83;;;15.50;99.90;;;;;;5045926;28;20205;-65
2022/04/16 07:24:56;;;;;;;20.97;17.27;;;15.60;99.90;;;;;;5040748;28;20299;-65
2022/04/16 07:27:25;;;;;;;22.37;16.20;;;15.60;99.90;;;;;;5039552;28;20213;-66
2022/04/16 07:29:58;;;;;;;23.90;17.07;;;15.80;99.90;;;;;;5045132;28;20303;-66
2022/04/16 07:32:28;;;;;;;19.73;15.93;;;16.00;99.90;;;;;;5045651;28;20266;-66
2022/04/16 07:34:56;;;;;;;19.20;15.47;;;16.30;99.90;;;;;;5042268;28;20267;-66
2022/04/16 07:37:28;;;;;;;20.03;15.70;;;16.60;99.90;;;;;;5043832;28;20200;-66
2022/04/16 07:39:56;;;;;;;21.93;15.87;;;16.70;99.90;;;;;;5041645;28;20192;-66
2022/04/16 07:42:26;;;;;;;25.30;16.87;;;16.60;99.90;;;;;;5042936;28;20201;-66
2022/04/16 07:44:55;;;;;;;21.67;16.30;;;16.90;99.90;;;;;;5037668;28;20216;-66
2022/04/16 07:47:23;;;;;;;20.57;15.93;;;16.90;99.90;;;;;;5044727;28;20224;-66
2022/04/16 07:49:53;;;;;;;18.50;15.23;;;17.00;99.90;;;;;;5042132;28;20262;-66
2022/04/16 07:52:25;;;;;;;18.97;15.07;;;16.70;99.90;;;;;;5044739;28;20626;-65
2022/04/16 07:54:53;;;;;;;17.50;15.27;;;16.70;99.90;;;;;;5043914;28;20224;-66
2022/04/16 07:57:22;;;;;;;17.97;14.83;;;17.00;99.90;;;;;;5031372;28;20194;-66
2022/04/16 07:59:50;;;;;;;20.10;15.53;;;17.20;99.90;;;;;;5041517;28;20201;-66
2022/04/16 08:02:18;;;;;;;17.10;14.63;;;17.60;99.90;;;;;;5045840;28;20192;-66
2022/04/16 08:04:47;;;;;;;19.67;15.30;;;17.90;99.90;;;;;;5043275;28;21694;-65
2022/04/16 08:07:17;;;;;;;16.97;14.90;;;17.50;99.90;;;;;;5044990;28;20221;-65
2022/04/16 08:09:45;;;;;;;16.47;14.27;;;17.80;99.90;;;;;;5043782;28;20207;-65
2022/04/16 08:12:14;;;;;;;19.20;15.17;;;18.10;99.90;;;;;;5043021;28;20200;-65
2022/04/16 08:14:42;;;;;;;16.03;13.53;;;18.20;99.90;;;;;;5044043;28;20689;-65
2022/04/16 08:17:11;;;;;;;21.57;15.03;;;18.20;99.90;;;;;;5047229;28;20204;-65
2022/04/16 08:19:39;;;;;;;17.37;14.43;;;18.60;99.90;;;;;;5045890;28;20280;-65
2022/04/16 08:22:10;;;;;;;16.37;14.07;;;18.60;99.90;;;;;;5044038;28;20283;-65
2022/04/16 08:24:41;;;;;;;14.07;12.50;;;19.00;99.90;;;;;;5044326;28;20202;-65
2022/04/16 08:27:10;;;;;;;14.80;13.27;;;19.60;99.90;;;;;;5046149;28;20217;-65
2022/04/16 08:29:38;;;;;;;15.30;13.40;;;19.90;99.90;;;;;;5043548;28;20209;-66
2022/04/16 08:32:08;;;;;;;14.87;12.40;;;20.20;99.90;;;;;;5039029;28;20327;-67
2022/04/16 08:34:51;;;;;;;16.20;13.07;;;20.40;99.90;;;;;;5036777;28;20341;-68
2022/04/16 08:37:20;;;;;;;16.23;12.43;;;20.30;99.90;;;;;;5040008;28;20206;-68
2022/04/16 08:39:50;;;;;;;13.10;11.80;;;20.50;99.90;;;;;;5041156;28;20281;-68
2022/04/16 08:42:18;;;;;;;13.40;12.00;;;20.30;99.90;;;;;;5040759;28;20445;-68
2022/04/16 08:44:47;;;;;;;15.10;12.53;;;20.70;99.90;;;;;;5042249;28;20271;-68
2022/04/16 08:47:16;;;;;;;17.63;12.73;;;21.00;99.90;;;;;;5043987;28;20218;-68
2022/04/16 08:49:45;;;;;;;13.03;11.03;;;21.20;99.90;;;;;;5046992;28;20229;-68
2022/04/16 08:52:13;;;;;;;13.27;10.90;;;21.40;99.90;;;;;;5044107;28;20212;-66
2022/04/16 08:54:42;;;;;;;13.53;11.03;;;21.40;99.90;;;;;;5047823;28;20196;-68
2022/04/16 08:57:12;;;;;;;12.80;11.47;;;21.70;99.90;;;;;;5042339;28;20239;-67
2022/04/16 08:59:40;;;;;;;14.90;11.27;;;21.70;99.90;;;;;;5045351;28;20205;-67
2022/04/16 09:02:09;;;;;;;11.50;10.30;;;21.70;99.90;;;;;;5048949;28;20228;-69
2022/04/16 09:04:38;;;;;;;12.07;10.87;;;22.00;99.90;;;;;;5046979;28;20197;-66
2022/04/16 09:07:06;;;;;;;11.60;10.43;;;22.10;99.90;;;;;;5046589;28;20213;-68
2022/04/16 09:09:35;;;;;;;10.67;9.67;;;22.20;99.90;;;;;;5047396;28;20207;-68
2022/04/16 09:12:04;;;;;;;14.17;10.83;;;22.40;99.90;;;;;;5046049;28;20212;-68
2022/04/16 09:14:42;;;;;;;13.30;11.20;;;22.40;99.90;;;;;;5047850;28;20197;-68
2022/04/16 09:17:15;;;;;;;11.33;10.23;;;22.20;99.90;;;;;;5047278;28;20199;-68
2022/04/16 09:19:44;;;;;;;13.23;10.03;;;22.30;99.90;;;;;;5040716;28;20300;-68
2022/04/16 09:22:12;;;;;;;10.37;9.37;;;22.40;99.90;;;;;;5049042;28;20225;-68
2022/04/16 09:24:47;;;;;;;10.03;9.13;;;22.40;99.90;;;;;;5048099;28;20264;-68
2022/04/16 09:27:15;;;;;;;9.47;8.57;;;22.40;99.90;;;;;;5045253;28;20219;-68
2022/04/16 09:29:46;;;;;;;8.60;7.80;;;22.40;99.90;;;;;;5038779;28;20288;-69
2022/04/16 09:32:23;;;;;;;8.60;7.77;;;22.70;99.90;;;;;;5045806;28;20470;-68
2022/04/16 09:34:52;;;;;;;8.73;7.87;;;22.70;99.90;;;;;;5046682;28;20200;-64
2022/04/16 09:37:24;;;;;;;10.70;7.80;;;22.00;99.90;;;;;;5044040;28;20279;-66
2022/04/16 09:39:53;;;;;;;8.50;7.67;;;22.00;99.90;;;;;;5046915;28;20197;-68
2022/04/16 09:42:28;;;;;;;9.10;8.00;;;22.30;99.90;;;;;;5043671;28;20729;-68
2022/04/16 09:44:58;;;;;;;9.73;8.73;;;22.60;99.90;;;;;;5046278;28;20208;-68
2022/04/16 09:47:28;;;;;;;10.90;9.03;;;23.00;99.90;;;;;;5042866;28;20211;-67
2022/04/16 09:49:57;;;;;;;12.23;9.10;;;22.80;99.90;;;;;;5044719;28;20207;-67
2022/04/16 09:52:26;;;;;;;9.97;8.67;;;22.40;99.60;;;;;;5045907;28;20661;-66
2022/04/16 09:54:59;;;;;;;9.20;8.30;;;22.20;99.60;;;;;;5046609;28;20251;-68
2022/04/16 09:57:31;;;;;;;8.93;8.13;;;22.30;99.30;;;;;;5042296;28;20203;-68
2022/04/16 10:00:04;;;;;;;8.30;7.00;;;22.60;99.20;;;;;;5046073;28;20292;-69
2022/04/16 10:02:34;;;;;;;8.53;7.73;;;23.10;98.50;;;;;;5043870;28;20208;-70
2022/04/16 10:05:42;;;;;;;8.90;8.00;;;22.70;98.20;;;;;;5045698;28;20295;-71
2022/04/16 10:08:14;;;;;;;9.73;7.67;;;21.70;99.20;;;;;;5040345;28;20492;-70
2022/04/16 10:10:46;;;;;;;8.03;6.93;;;22.20;99.10;;;;;;5046132;28;20557;-71
2022/04/16 10:13:17;;;;;;;10.73;8.87;;;23.30;99.50;;;;;;5044054;28;20211;-71
2022/04/16 10:16:02;;;;;;;7.13;6.50;;;23.90;98.40;;;;;;5047258;28;20212;-71
2022/04/16 10:18:34;;;;;;;11.33;5.87;;;23.70;96.20;;;;;;5045958;28;20901;-71
2022/04/16 10:21:04;;;;;;;7.50;6.90;;;23.50;96.90;;;;;;5042494;28;20201;-71
2022/04/16 10:23:40;;;;;;;8.07;7.23;;;23.50;96.40;;;;;;5046560;28;20592;-70
2022/04/16 10:26:10;;;;;;;6.87;6.27;;;23.40;96.30;;;;;;5043557;28;20220;-69
2022/04/16 10:28:43;;;;;;;6.10;5.60;;;23.40;96.10;;;;;;5042884;28;20216;-70
2022/04/16 10:31:23;;;;;;;6.97;6.37;;;22.80;96.10;;;;;;5045683;28;20289;-67
2022/04/16 10:34:00;;;;;;;6.40;5.90;;;22.10;97.20;;;;;;5047828;28;20281;-69
2022/04/16 10:36:32;;;;;;;4.10;3.90;;;22.20;97.30;;;;;;5043662;28;20272;-69
2022/04/16 10:39:01;;;;;;;3.27;3.07;;;22.90;95.70;;;;;;5044196;28;20194;-71
2022/04/16 10:41:29;;;;;;;3.93;3.63;;;23.40;94.90;;;;;;5045326;28;20207;-71
2022/04/16 10:44:00;;;;;;;5.07;4.30;;;23.20;95.50;;;;;;5042408;28;20204;-71
2022/04/16 10:46:45;;;;;;;6.10;3.53;;;23.40;94.30;;;;;;5041288;28;20211;-65
2022/04/16 10:49:15;;;;;;;3.90;3.60;;;22.40;93.80;;;;;;5043420;28;20321;-70
2022/04/16 10:51:44;;;;;;;4.97;4.20;;;22.00;94.60;;;;;;5045543;28;20227;-70
2022/04/16 10:54:14;;;;;;;4.50;4.20;;;22.40;95.70;;;;;;5045813;28;20199;-65
2022/04/16 10:56:52;;;;;;;5.40;4.90;;;22.70;94.60;;;;;;5041815;28;20191;-71
2022/04/16 10:59:37;;;;;;;5.63;5.13;;;22.40;95.10;;;;;;5036108;28;20191;-71
2022/04/16 11:02:19;;;;;;;5.03;4.60;;;22.10;94.90;;;;;;5041918;28;20221;-67
2022/04/16 11:04:59;;;;;;;5.63;5.13;;;22.00;96.00;;;;;;5044718;28;20671;-71
2022/04/16 11:07:27;;;;;;;5.67;5.13;;;21.60;94.70;;;;;;5030684;28;20213;-71
2022/04/16 11:09:56;;;;;;;5.53;5.03;;;21.10;95.50;;;;;;5042947;28;20201;-72
2022/04/16 11:12:25;;;;;;;6.63;6.10;;;21.40;95.80;;;;;;5041162;28;20292;-67
2022/04/16 11:14:55;;;;;;;5.33;4.90;;;20.90;95.60;;;;;;5041611;28;20196;-71
2022/04/16 11:17:25;;;;;;;6.40;5.80;;;21.40;97.40;;;;;;5045301;28;20563;-72
2022/04/16 11:20:00;;;;;;;6.50;6.00;;;21.30;96.00;;;;;;5045945;28;20272;-66
2022/04/16 11:22:28;;;;;;;5.83;5.43;;;21.00;95.80;;;;;;5043274;28;20204;-66
2022/04/16 11:24:57;;;;;;;7.10;5.27;;;21.10;96.80;;;;;;5043698;28;21462;-65
2022/04/16 11:36:16;;;;;;;5.00;4.70;;;21.10;94.80;;;;;;5013544;28;20311;-66
2022/04/16 11:38:45;;;;;;;12.47;5.33;;;21.10;95.60;;;;;;5038637;28;20193;-66
2022/04/16 11:41:14;;;;;;;6.10;5.50;;;21.00;95.60;;;;;;5045651;28;20727;-68
2022/04/16 11:43:48;;;;;;;5.63;5.13;;;21.30;94.50;;;;;;5042796;28;20200;-71
2022/04/16 11:46:16;;;;;;;5.13;4.70;;;20.90;95.60;;;;;;5045099;28;20271;-70
2022/04/16 11:48:47;;;;;;;5.43;5.00;;;20.90;95.80;;;;;;5042347;28;20577;-71
2022/04/16 11:51:16;;;;;;;4.73;4.33;;;21.00;96.10;;;;;;5046632;28;20197;-71
2022/04/16 11:53:45;;;;;;;6.40;5.80;;;21.00;94.80;;;;;;5044799;28;20200;-70
2022/04/16 11:56:13;;;;;;;6.23;5.63;;;20.70;95.40;;;;;;5043326;28;20279;-71
2022/04/16 11:58:48;;;;;;;5.37;4.73;;;20.90;97.10;;;;;;5040900;28;20214;-70
2022/04/16 12:01:20;;;;;;;5.03;4.63;;;21.20;96.40;;;;;;5039190;28;20209;-71
2022/04/16 12:03:52;;;;;;;5.97;5.23;;;21.90;96.90;;;;;;5044752;28;20236;-70
2022/04/16 12:06:20;;;;;;;6.13;5.60;;;22.30;95.30;;;;;;5036940;28;20681;-70
2022/04/16 12:08:52;;;;;;;6.83;6.23;;;21.70;95.10;;;;;;5046910;28;20653;-70
2022/04/16 12:11:20;;;;;;;7.33;6.63;;;21.20;96.20;;;;;;5046649;28;20193;-70
2022/04/16 12:13:54;;;;;;;7.57;5.87;;;21.10;96.00;;;;;;5045960;28;20189;-70
2022/04/16 12:16:22;;;;;;;7.70;6.70;;;20.80;97.00;;;;;;5046252;28;20200;-70
2022/04/16 12:18:54;;;;;;;6.20;5.70;;;21.10;95.80;;;;;;5044926;28;20243;-70
2022/04/16 12:21:24;;;;;;;7.20;6.50;;;20.60;98.10;;;;;;5046278;28;20288;-70
2022/04/16 12:23:53;;;;;;;16.77;7.10;;;20.60;96.50;;;;;;5044524;28;20200;-67
2022/04/16 12:26:21;;;;;;;6.63;6.10;;;20.10;96.30;;;;;;5047062;28;20659;-70
2022/04/16 12:28:51;;;;;;;6.50;5.93;;;20.20;96.60;;;;;;5047599;28;20224;-70
2022/04/16 12:31:27;;;;;;;6.20;5.70;;;20.50;96.90;;;;;;5047949;28;20593;-70
2022/04/16 12:33:57;;;;;;;6.90;6.30;;;20.40;96.80;;;;;;5047464;28;20851;-70
2022/04/16 12:36:25;;;;;;;6.77;6.17;;;20.00;96.90;;;;;;5035309;28;20250;-70
2022/04/16 12:38:54;;;;;;;8.37;6.70;;;19.80;96.90;;;;;;5045515;28;20224;-70
2022/04/16 12:41:23;;;;;;;6.80;6.20;;;19.60;96.80;;;;;;5046629;28;20197;-70
2022/04/16 12:43:51;;;;;;;6.67;6.07;;;19.40;97.60;;;;;;5045147;28;20272;-70
2022/04/16 12:46:19;;;;;;;7.80;7.00;;;19.80;97.90;;;;;;5050349;28;20192;-67
2022/04/16 12:48:47;;;;;;;21.20;6.93;;;19.50;96.40;;;;;;5046781;28;20221;-71
2022/04/16 12:51:18;;;;;;;7.80;7.00;;;19.20;98.20;;;;;;5051196;28;20284;-71
2022/04/16 12:53:46;;;;;;;7.33;6.73;;;19.30;98.70;;;;;;5049093;28;20211;-70
2022/04/16 12:56:14;;;;;;;7.53;6.80;;;19.20;97.30;;;;;;5050118;28;20276;-70
2022/04/16 12:58:43;;;;;;;9.17;6.83;;;19.30;97.80;;;;;;5043447;28;20185;-70
2022/04/16 13:01:15;;;;;;;7.33;6.73;;;19.50;97.60;;;;;;5046081;28;20192;-71
2022/04/16 13:03:44;;;;;;;7.17;6.53;;;19.60;96.90;;;;;;5044710;28;20205;-70
2022/04/16 13:06:12;;;;;;;8.07;7.27;;;19.70;97.90;;;;;;5044427;28;20280;-70
2022/04/16 13:08:42;;;;;;;7.90;7.10;;;19.50;97.60;;;;;;5048944;28;20207;-70